createdAt,value
2023-02-11T00:00:09.048Z,32.17
2023-02-11T00:02:35.447Z,30.38
2023-02-11T00:05:02.584Z,38.45
2023-02-11T00:07:29.345Z,36.90
2023-02-11T00:09:55.752Z,35.83
2023-02-11T00:12:22.251Z,37.67
2023-02-11T00:14:48.745Z,32.03
2023-02-11T00:17:15.270Z,36.05
2023-02-11T00:19:41.690Z,29.02
2023-02-11T00:22:08.091Z,29.20
2023-02-11T00:24:35.490Z,24.92
2023-02-11T00:27:01.871Z,25.95
2023-02-11T00:29:28.262Z,19.20
2023-02-11T00:31:54.637Z,24.75
2023-02-11T00:34:21.064Z,30.13
2023-02-11T00:36:49.369Z,31.73
2023-02-11T00:39:15.777Z,23.80
2023-02-11T00:41:42.165Z,29.13
2023-02-11T00:44:08.480Z,30.17
2023-02-11T00:46:34.852Z,32.65
2023-02-11T00:49:01.396Z,42.70
2023-02-11T00:51:28.411Z,27.98
2023-02-11T00:53:54.758Z,32.88
2023-02-11T00:56:21.474Z,44.50
2023-02-11T00:58:47.911Z,37.67
2023-02-11T01:01:14.591Z,37.65
2023-02-11T01:03:41.423Z,44.72
2023-02-11T01:06:08.649Z,39.17
2023-02-11T01:08:35.035Z,42.58
2023-02-11T01:11:02.890Z,38.85
2023-02-11T01:13:30.328Z,37.35
2023-02-11T01:15:57.327Z,34.97
2023-02-11T01:18:23.907Z,34.65
2023-02-11T01:20:51.525Z,46.28
2023-02-11T01:23:18.130Z,41.20
2023-02-11T01:25:44.815Z,40.58
2023-02-11T01:28:15.811Z,37.83
2023-02-11T01:30:42.165Z,33.95
2023-02-11T01:33:08.604Z,39.15
2023-02-11T01:35:35.042Z,34.33
2023-02-11T01:38:01.372Z,37.00
2023-02-11T01:40:27.686Z,38.63
2023-02-11T01:42:54.457Z,39.15
2023-02-11T01:45:39.416Z,38.55
2023-02-11T01:48:05.829Z,36.53
2023-02-11T01:50:32.326Z,39.38
2023-02-11T01:53:18.695Z,41.33
2023-02-11T01:56:04.194Z,38.33
2023-02-11T01:58:32.995Z,38.72
2023-02-11T02:01:00.822Z,39.13
2023-02-11T02:03:27.868Z,38.97
2023-02-11T02:06:01.822Z,40.88
2023-02-11T02:08:32.072Z,42.75
2023-02-11T02:11:00.901Z,41.47
2023-02-11T02:13:28.530Z,36.95
2023-02-11T02:15:55.914Z,32.05
2023-02-11T02:18:22.453Z,42.30
2023-02-11T02:20:48.777Z,36.50
2023-02-11T02:23:28.574Z,37.30
2023-02-11T02:25:57.856Z,41.03
2023-02-11T02:28:33.482Z,35.00
2023-02-11T02:31:09.173Z,35.85
2023-02-11T02:33:44.623Z,36.05
2023-02-11T02:36:34.227Z,36.92
2023-02-11T02:39:03.353Z,43.13
2023-02-11T02:41:34.526Z,43.38
2023-02-11T02:44:01.036Z,33.57
2023-02-11T02:46:34.307Z,36.63
2023-02-11T02:49:00.843Z,39.13
2023-02-11T02:51:42.291Z,36.95
2023-02-11T02:54:31.828Z,35.83
2023-02-11T02:57:17.202Z,36.53
2023-02-11T02:59:52.794Z,39.67
2023-02-11T03:02:22.142Z,37.45
2023-02-11T03:04:52.424Z,42.17
2023-02-11T03:07:34.957Z,34.28
2023-02-11T03:10:34.055Z,31.02
2023-02-11T03:13:01.527Z,35.15
2023-02-11T03:15:30.690Z,33.75
2023-02-11T03:17:59.250Z,35.60
2023-02-11T03:20:27.362Z,40.08
2023-02-11T03:23:04.554Z,40.92
2023-02-11T03:25:34.656Z,49.75
2023-02-11T03:28:08.164Z,42.92
2023-02-11T03:30:37.118Z,35.80
2023-02-11T03:33:07.061Z,36.90
2023-02-11T03:35:39.655Z,47.20
2023-02-11T03:38:07.652Z,36.88
2023-02-11T03:40:38.905Z,38.90
2023-02-11T03:43:08.663Z,39.85
2023-02-11T03:45:36.189Z,34.90
2023-02-11T03:48:14.540Z,43.78
2023-02-11T03:50:41.658Z,44.10
2023-02-11T03:53:08.374Z,43.67
2023-02-11T03:55:37.035Z,43.50
2023-02-11T03:58:03.466Z,33.22
2023-02-11T04:00:34.171Z,39.67
2023-02-11T04:03:00.760Z,37.88
2023-02-11T04:05:27.151Z,35.75
2023-02-11T04:07:53.636Z,37.40
2023-02-11T04:10:20.082Z,38.13
2023-02-11T04:12:46.382Z,44.50
2023-02-11T04:15:12.698Z,45.38
2023-02-11T04:17:39.016Z,42.45
2023-02-11T04:20:05.632Z,38.42
2023-02-11T04:22:32.018Z,40.17
2023-02-11T04:24:58.380Z,36.60
2023-02-11T04:27:25.212Z,42.75
2023-02-11T04:29:51.599Z,38.65
2023-02-11T04:32:17.976Z,43.20
2023-02-11T04:34:44.266Z,40.58
2023-02-11T04:37:10.569Z,47.05
2023-02-11T04:39:36.957Z,46.40
2023-02-11T04:42:03.370Z,38.55
2023-02-11T04:44:29.747Z,44.47
2023-02-11T04:46:56.046Z,39.28
2023-02-11T04:49:22.326Z,46.92
2023-02-11T04:51:49.632Z,43.08
2023-02-11T04:54:16.395Z,36.75
2023-02-11T04:56:42.784Z,37.05
2023-02-11T04:59:09.191Z,36.15
2023-02-11T05:01:35.646Z,42.53
2023-02-11T05:04:02.100Z,40.67
2023-02-11T05:06:28.558Z,44.25
2023-02-11T05:08:54.900Z,42.83
2023-02-11T05:11:22.764Z,41.22
2023-02-11T05:13:49.174Z,40.08
2023-02-11T05:16:16.108Z,42.20
2023-02-11T05:18:43.128Z,36.08
2023-02-11T05:21:10.439Z,36.67
2023-02-11T05:23:36.983Z,33.78
2023-02-11T05:26:03.478Z,32.88
2023-02-11T05:28:29.893Z,35.10
2023-02-11T05:30:56.384Z,35.80
2023-02-11T05:33:22.848Z,39.08
2023-02-11T05:35:49.733Z,36.00
2023-02-11T05:38:16.333Z,35.63
2023-02-11T05:40:42.682Z,36.90
2023-02-11T05:43:09.043Z,33.38
2023-02-11T05:45:36.023Z,31.70
2023-02-11T05:48:02.380Z,33.42
2023-02-11T05:50:28.807Z,44.25
2023-02-11T05:52:55.144Z,38.97
2023-02-11T05:55:21.601Z,37.60
2023-02-11T05:57:48.213Z,39.10
2023-02-11T06:00:14.822Z,39.58
2023-02-11T06:02:41.332Z,42.45
2023-02-11T06:05:07.981Z,32.45
2023-02-11T06:07:34.394Z,37.50
2023-02-11T06:10:00.883Z,37.33
2023-02-11T06:12:27.407Z,43.70
2023-02-11T06:14:53.894Z,41.13
2023-02-11T06:17:20.225Z,43.10
2023-02-11T06:19:46.514Z,37.78
2023-02-11T06:22:12.927Z,47.72
2023-02-11T06:24:59.782Z,38.70
2023-02-11T06:27:26.743Z,51.60
2023-02-11T06:29:53.084Z,41.67
2023-02-11T06:32:39.419Z,39.38
2023-02-11T06:35:06.198Z,45.38
2023-02-11T06:37:33.811Z,43.33
2023-02-11T06:40:00.220Z,46.88
2023-02-11T06:42:26.638Z,51.63
2023-02-11T06:44:53.056Z,44.22
2023-02-11T06:47:19.365Z,44.63
2023-02-11T06:49:45.832Z,47.70
2023-02-11T06:52:12.142Z,38.72
2023-02-11T06:54:38.555Z,31.85
2023-02-11T06:57:04.899Z,30.98
2023-02-11T06:59:31.262Z,36.67
2023-02-11T07:01:57.630Z,41.22
2023-02-11T07:04:24.238Z,44.15
2023-02-11T07:06:50.558Z,44.72
2023-02-11T07:09:17.035Z,39.10
2023-02-11T07:11:43.346Z,48.13
2023-02-11T07:14:10.323Z,49.70
2023-02-11T07:16:37.152Z,40.45
2023-02-11T07:19:03.513Z,38.33
2023-02-11T07:21:30.090Z,39.15
2023-02-11T07:23:56.437Z,35.90
2023-02-11T07:29:46.940Z,42.20
2023-02-11T07:32:13.658Z,37.53
2023-02-11T07:34:40.154Z,41.10
2023-02-11T07:37:06.516Z,47.38
2023-02-11T07:39:32.879Z,52.88
2023-02-11T07:42:00.107Z,44.38
2023-02-11T07:44:26.467Z,46.95
2023-02-11T07:46:53.321Z,49.08
2023-02-11T07:49:19.685Z,48.97
2023-02-11T07:51:47.202Z,44.22
2023-02-11T07:54:13.516Z,47.47
2023-02-11T07:56:39.909Z,37.78
2023-02-11T07:59:06.298Z,35.83
2023-02-11T08:01:32.772Z,26.25
2023-02-11T08:03:59.950Z,28.13
2023-02-11T08:06:27.609Z,27.20
2023-02-11T08:08:54.149Z,29.38
2023-02-11T08:11:24.950Z,30.23
2023-02-11T08:13:52.036Z,33.83
2023-02-11T08:16:20.557Z,36.17
2023-02-11T08:18:47.151Z,32.63
2023-02-11T08:21:13.748Z,39.00
2023-02-11T08:23:41.421Z,29.58
2023-02-11T08:26:09.479Z,29.17
2023-02-11T08:28:36.392Z,35.40
2023-02-11T08:31:06.924Z,31.30
2023-02-11T08:33:33.964Z,31.10
2023-02-11T08:36:00.544Z,28.55
2023-02-11T08:38:26.971Z,34.40
2023-02-11T08:40:53.387Z,38.38
2023-02-11T08:43:19.698Z,30.27
2023-02-11T08:45:46.176Z,30.13
2023-02-11T08:48:12.539Z,34.88
2023-02-11T08:50:39.570Z,28.92
2023-02-11T08:53:05.960Z,31.88
2023-02-11T08:55:32.266Z,32.17
2023-02-11T08:57:58.728Z,31.58
2023-02-11T09:00:25.205Z,38.00
2023-02-11T09:02:51.618Z,27.02
2023-02-11T09:05:18.052Z,24.58
2023-02-11T09:07:44.386Z,21.10
2023-02-11T09:10:10.727Z,29.90
2023-02-11T09:12:37.018Z,27.52
2023-02-11T09:15:03.361Z,26.92
2023-02-11T09:17:29.845Z,33.53
2023-02-11T09:19:56.149Z,31.30
2023-02-11T09:22:22.560Z,23.50
2023-02-11T09:24:48.916Z,24.92
2023-02-11T09:27:15.290Z,23.27
2023-02-11T09:29:41.595Z,27.30
2023-02-11T09:32:10.055Z,25.77
2023-02-11T09:34:36.562Z,19.55
2023-02-11T09:37:03.071Z,21.98
2023-02-11T09:39:29.720Z,33.50
2023-02-11T09:42:07.956Z,27.75
2023-02-11T09:44:36.338Z,22.10
2023-02-11T09:47:04.820Z,19.65
2023-02-11T09:49:35.116Z,18.27
2023-02-11T09:52:05.095Z,16.67
2023-02-11T09:54:35.386Z,23.73
2023-02-11T09:57:01.791Z,25.90
2023-02-11T09:59:28.118Z,17.85
2023-02-11T10:01:58.968Z,18.33
2023-02-11T10:04:39.625Z,17.50
2023-02-11T10:07:27.767Z,18.73
2023-02-11T10:09:56.866Z,23.60
2023-02-11T10:12:26.016Z,19.02
2023-02-11T10:14:55.383Z,15.68
2023-02-11T10:17:34.980Z,18.83
2023-02-11T10:20:20.139Z,18.75
2023-02-11T10:22:49.304Z,20.88
2023-02-11T10:25:23.646Z,18.00
2023-02-11T10:27:50.210Z,18.55
2023-02-11T10:30:23.307Z,25.92
2023-02-11T10:32:52.673Z,17.70
2023-02-11T10:35:21.407Z,16.13
2023-02-11T10:37:48.552Z,20.30
2023-02-11T10:40:25.359Z,19.83
2023-02-11T10:42:55.569Z,17.23
2023-02-11T10:45:37.312Z,18.30
2023-02-11T10:48:06.260Z,18.80
2023-02-11T10:50:34.912Z,25.23
2023-02-11T10:53:27.691Z,23.55
2023-02-11T10:55:55.244Z,18.73
2023-02-11T10:58:24.315Z,18.20
2023-02-11T11:00:52.939Z,16.88
2023-02-11T11:03:20.789Z,16.73
2023-02-11T11:05:49.088Z,23.58
2023-02-11T11:08:15.635Z,17.13
2023-02-11T11:10:43.642Z,13.90
2023-02-11T11:13:36.376Z,10.38
2023-02-11T11:16:14.859Z,10.75
2023-02-11T11:18:43.804Z,7.00
2023-02-11T11:21:45.935Z,8.27
2023-02-11T11:24:29.489Z,7.55
2023-02-11T11:26:57.380Z,11.02
2023-02-11T11:29:35.331Z,11.73
2023-02-11T11:32:07.071Z,9.38
2023-02-11T11:34:34.930Z,10.43
2023-02-11T11:37:09.715Z,11.25
2023-02-11T11:39:36.283Z,11.18
2023-02-11T11:42:26.076Z,11.48
2023-02-11T11:45:03.670Z,14.95
2023-02-11T11:47:36.128Z,15.77
2023-02-11T11:50:21.380Z,16.52
2023-02-11T11:52:50.477Z,16.35
2023-02-11T11:55:21.604Z,10.50
2023-02-11T11:57:48.511Z,10.80
2023-02-11T12:00:16.823Z,16.92
2023-02-11T12:02:49.133Z,15.25
2023-02-11T12:05:34.110Z,14.13
2023-02-11T12:08:09.580Z,12.32
2023-02-11T12:10:35.989Z,9.13
2023-02-11T12:13:11.128Z,14.43
2023-02-11T12:15:43.417Z,13.07
2023-02-11T12:18:12.861Z,12.73
2023-02-11T12:20:51.539Z,10.10
2023-02-11T12:23:36.981Z,8.30
2023-02-11T12:26:22.034Z,8.70
2023-02-11T12:29:05.569Z,7.70
2023-02-11T12:31:50.794Z,12.52
2023-02-11T12:34:26.488Z,13.15
2023-02-11T12:37:19.917Z,10.70
2023-02-11T12:39:55.321Z,14.63
2023-02-11T12:42:40.463Z,9.30
2023-02-11T12:45:06.880Z,8.60
2023-02-11T12:47:48.263Z,10.82
2023-02-11T12:50:17.403Z,12.20
2023-02-11T12:53:09.930Z,13.77
2023-02-11T12:55:41.002Z,9.23
2023-02-11T12:58:12.012Z,6.75
2023-02-11T13:00:44.855Z,7.93
2023-02-11T13:03:16.903Z,9.23
2023-02-11T13:08:09.770Z,11.88
2023-02-11T13:10:38.067Z,9.70
2023-02-11T13:13:17.372Z,8.82
2023-02-11T13:15:45.767Z,13.57
2023-02-11T13:18:21.266Z,10.38
2023-02-11T13:20:51.974Z,7.35
2023-02-11T13:23:21.358Z,10.10
2023-02-11T13:26:05.742Z,10.80
2023-02-11T13:28:40.151Z,7.35
2023-02-11T13:31:08.059Z,5.13
2023-02-11T13:33:39.542Z,4.82
2023-02-11T13:36:05.872Z,5.38
2023-02-11T13:38:32.665Z,7.88
2023-02-11T13:41:06.792Z,8.18
2023-02-11T13:43:34.319Z,6.88
2023-02-11T13:46:05.139Z,6.07
2023-02-11T13:48:36.527Z,4.68
2023-02-11T13:51:04.919Z,5.95
2023-02-11T13:53:44.172Z,3.63
2023-02-11T13:56:12.815Z,7.32
2023-02-11T13:58:49.321Z,7.05
2023-02-11T14:01:34.527Z,7.43
2023-02-11T14:04:38.786Z,6.60
2023-02-11T14:07:42.606Z,9.25
2023-02-11T14:10:41.668Z,8.35
2023-02-11T14:13:23.188Z,13.43
2023-02-11T14:16:02.968Z,12.77
2023-02-11T14:18:44.412Z,9.98
2023-02-11T14:21:11.829Z,12.20
2023-02-11T14:23:38.270Z,7.15
2023-02-11T14:26:20.352Z,6.00
2023-02-11T14:31:18.313Z,3.67
2023-02-11T14:33:50.830Z,9.82
2023-02-11T14:36:44.610Z,7.30
2023-02-11T14:39:16.693Z,8.85
2023-02-11T14:44:14.710Z,8.85
2023-02-11T14:46:44.026Z,11.43
2023-02-11T14:49:13.469Z,15.77
2023-02-11T14:51:40.838Z,16.42
2023-02-11T14:54:12.965Z,14.40
2023-02-11T14:56:39.764Z,13.60
2023-02-11T14:59:20.924Z,12.38
2023-02-11T15:01:51.341Z,8.70
2023-02-11T15:04:24.922Z,11.75
2023-02-11T15:06:51.421Z,16.95
2023-02-11T15:09:19.631Z,11.32
2023-02-11T15:11:47.282Z,14.25
2023-02-11T15:14:26.877Z,11.02
2023-02-11T15:16:54.770Z,13.30
2023-02-11T15:19:41.360Z,16.05
2023-02-11T15:22:15.801Z,11.55
2023-02-11T15:24:42.134Z,12.75
2023-02-11T15:27:08.414Z,15.77
2023-02-11T15:29:36.715Z,13.90
2023-02-11T15:32:07.444Z,14.05
2023-02-11T15:34:34.096Z,14.48
2023-02-11T15:37:00.566Z,14.18
2023-02-11T15:39:35.627Z,8.75
2023-02-11T15:42:17.242Z,7.53
2023-02-11T15:44:43.567Z,8.85
2023-02-11T15:47:10.808Z,10.27
2023-02-11T15:49:37.324Z,7.95
2023-02-11T15:52:04.253Z,6.13
2023-02-11T15:54:32.165Z,4.60
2023-02-11T15:57:03.739Z,5.88
2023-02-11T15:59:35.932Z,9.13
2023-02-11T16:02:06.894Z,7.00
2023-02-11T16:04:33.305Z,6.40
2023-02-11T16:06:59.713Z,6.80
2023-02-11T16:09:36.131Z,6.70
2023-02-11T16:12:22.743Z,5.47
2023-02-11T16:14:49.259Z,3.85
2023-02-11T16:17:18.777Z,6.00
2023-02-11T16:19:47.114Z,4.78
2023-02-11T16:22:17.913Z,6.68
2023-02-11T16:24:46.307Z,5.28
2023-02-11T16:27:22.239Z,7.45
2023-02-11T16:29:49.421Z,10.13
2023-02-11T16:32:15.725Z,6.82
2023-02-11T16:34:42.160Z,4.93
2023-02-11T16:37:08.485Z,9.48
2023-02-11T16:39:35.034Z,8.55
2023-02-11T16:42:02.084Z,7.32
2023-02-11T16:44:28.657Z,11.32
2023-02-11T16:46:55.637Z,8.65
2023-02-11T16:49:27.565Z,5.10
2023-02-11T16:51:56.753Z,5.97
2023-02-11T16:54:23.127Z,4.70
2023-02-11T16:56:50.063Z,5.50
2023-02-11T16:59:16.415Z,4.40
2023-02-11T17:01:43.590Z,4.22
2023-02-11T17:04:17.113Z,6.30
2023-02-11T17:06:43.549Z,6.20
2023-02-11T17:09:16.194Z,5.32
2023-02-11T17:11:42.668Z,4.53
2023-02-11T17:14:08.966Z,5.13
2023-02-11T17:16:35.467Z,3.97
2023-02-11T17:19:02.428Z,4.38
2023-02-11T17:21:31.415Z,4.57
2023-02-11T17:23:58.136Z,4.00
2023-02-11T17:26:24.783Z,2.65
2023-02-11T17:28:51.162Z,3.85
2023-02-11T17:31:17.641Z,6.95
2023-02-11T17:33:44.014Z,6.82
2023-02-11T17:36:10.738Z,6.18
2023-02-11T17:38:37.480Z,4.72
2023-02-11T17:41:04.717Z,4.47
2023-02-11T17:43:31.748Z,4.20
2023-02-11T17:45:58.271Z,3.13
2023-02-11T17:48:24.778Z,7.15
2023-02-11T17:50:51.081Z,6.68
2023-02-11T17:53:17.401Z,8.60
2023-02-11T17:55:43.800Z,6.43
2023-02-11T17:58:10.089Z,8.55
2023-02-11T18:00:36.520Z,10.55
2023-02-11T18:03:03.300Z,10.50
2023-02-11T18:05:36.567Z,8.15
2023-02-11T18:08:04.412Z,11.38
2023-02-11T18:10:31.190Z,13.85
2023-02-11T18:12:57.502Z,9.95
2023-02-11T18:15:23.965Z,11.38
2023-02-11T18:17:50.345Z,7.05
2023-02-11T18:20:16.899Z,6.38
2023-02-11T18:22:44.271Z,5.10
2023-02-11T18:25:13.135Z,7.03
2023-02-11T18:27:39.568Z,6.90
2023-02-11T18:30:06.225Z,6.30
2023-02-11T18:32:32.576Z,7.15
2023-02-11T18:34:58.894Z,7.47
2023-02-11T18:37:25.421Z,9.15
2023-02-11T18:39:51.808Z,9.77
2023-02-11T18:42:20.188Z,7.72
2023-02-11T18:44:46.574Z,8.55
2023-02-11T18:47:12.947Z,11.20
2023-02-11T18:49:39.301Z,12.05
2023-02-11T18:52:05.642Z,12.60
2023-02-11T18:54:32.127Z,10.02
2023-02-11T18:56:58.418Z,16.98
2023-02-11T18:59:24.779Z,13.98
2023-02-11T19:01:51.764Z,11.32
2023-02-11T19:04:20.056Z,10.73
2023-02-11T19:06:48.333Z,10.07
2023-02-11T19:09:15.597Z,13.13
2023-02-11T19:11:49.117Z,8.73
2023-02-11T19:14:26.494Z,7.57
2023-02-11T19:16:54.784Z,10.65
2023-02-11T19:19:25.496Z,10.00
2023-02-11T19:21:51.897Z,11.38
2023-02-11T19:24:21.343Z,12.23
2023-02-11T19:26:48.615Z,9.40
2023-02-11T19:29:15.173Z,12.35
2023-02-11T19:31:41.884Z,13.70
2023-02-11T19:34:08.304Z,11.27
2023-02-11T19:36:34.801Z,10.25
2023-02-11T19:39:01.521Z,10.45
2023-02-11T19:41:28.462Z,7.82
2023-02-11T19:43:56.554Z,7.13
2023-02-11T19:46:24.683Z,5.82
2023-02-11T19:48:51.127Z,5.47
2023-02-11T19:51:17.653Z,3.47
2023-02-11T19:53:44.316Z,2.92
2023-02-11T19:56:10.879Z,4.00
2023-02-11T19:58:38.097Z,7.25
2023-02-11T20:01:10.301Z,4.63
2023-02-11T20:03:37.051Z,3.38
2023-02-11T20:06:11.985Z,4.68
2023-02-11T20:08:38.651Z,2.40
2023-02-11T20:11:09.104Z,3.70
2023-02-11T20:13:35.451Z,3.80
2023-02-11T20:16:08.920Z,2.90
2023-02-11T20:18:36.526Z,3.90
2023-02-11T20:21:08.954Z,4.97
2023-02-11T20:23:35.591Z,5.53
2023-02-11T20:26:06.275Z,7.80
2023-02-11T20:28:32.822Z,7.03
2023-02-11T20:30:59.429Z,7.00
2023-02-11T20:33:25.980Z,6.88
2023-02-11T20:36:00.601Z,7.70
2023-02-11T20:38:27.142Z,6.80
2023-02-11T20:40:53.799Z,16.13
2023-02-11T20:43:20.562Z,14.52
2023-02-11T20:45:47.285Z,17.92
2023-02-11T20:48:13.829Z,22.60
2023-02-11T20:50:40.217Z,13.55
2023-02-11T20:53:06.636Z,23.92
2023-02-11T20:55:36.157Z,18.23
2023-02-11T20:58:02.447Z,17.27
2023-02-11T21:00:28.841Z,16.27
2023-02-11T21:02:55.330Z,15.02
2023-02-11T21:05:21.666Z,17.63
2023-02-11T21:07:48.051Z,16.92
2023-02-11T21:10:14.369Z,20.48
2023-02-11T21:12:40.668Z,17.83
2023-02-11T21:15:09.562Z,16.75
2023-02-11T21:17:35.995Z,18.33
2023-02-11T21:20:02.390Z,13.23
2023-02-11T21:22:28.694Z,12.40
2023-02-11T21:24:55.249Z,11.40
2023-02-11T21:27:21.685Z,14.48
2023-02-11T21:29:54.170Z,20.88
2023-02-11T21:32:21.194Z,22.48
2023-02-11T21:34:47.539Z,14.82
2023-02-11T21:37:13.912Z,16.77
2023-02-11T21:39:40.289Z,19.15
2023-02-11T21:42:06.760Z,12.45
2023-02-11T21:44:33.163Z,14.57
2023-02-11T21:47:00.005Z,8.32
2023-02-11T21:49:26.539Z,10.88
2023-02-11T21:51:52.863Z,11.52
2023-02-11T21:54:20.115Z,7.07
2023-02-11T21:56:46.687Z,8.93
2023-02-11T21:59:14.042Z,6.93
2023-02-11T22:01:40.435Z,8.05
2023-02-11T22:04:06.767Z,7.95
2023-02-11T22:06:33.794Z,7.32
2023-02-11T22:09:07.399Z,7.63
2023-02-11T22:11:33.933Z,6.75
2023-02-11T22:14:00.452Z,6.15
2023-02-11T22:16:27.658Z,7.55
2023-02-11T22:18:54.216Z,8.60
2023-02-11T22:21:21.676Z,9.02
2023-02-11T22:23:48.614Z,7.13
2023-02-11T22:26:16.697Z,4.43
2023-02-11T22:28:43.623Z,4.82
2023-02-11T22:31:17.355Z,4.78
2023-02-11T22:33:44.103Z,2.75
2023-02-11T22:36:18.597Z,3.55
2023-02-11T22:38:44.900Z,1.38
2023-02-11T22:41:11.830Z,1.55
2023-02-11T22:43:38.524Z,2.40
2023-02-11T22:46:06.237Z,2.30
2023-02-11T22:48:33.292Z,3.92
2023-02-11T22:51:06.742Z,3.70
2023-02-11T22:53:33.336Z,2.53
2023-02-11T22:56:07.152Z,3.53
2023-02-11T22:58:34.035Z,3.03
2023-02-11T23:01:00.449Z,2.80
2023-02-11T23:03:26.940Z,4.20
2023-02-11T23:05:53.513Z,4.82
2023-02-11T23:08:20.165Z,5.25
2023-02-11T23:10:46.512Z,3.65
2023-02-11T23:13:12.807Z,3.03
2023-02-11T23:15:40.645Z,3.65
2023-02-11T23:18:07.716Z,3.75
2023-02-11T23:20:35.093Z,2.42
2023-02-11T23:23:01.548Z,3.55
2023-02-11T23:25:27.927Z,3.38
2023-02-11T23:27:54.273Z,6.30
2023-02-11T23:30:21.855Z,4.25
2023-02-11T23:32:48.665Z,4.18
2023-02-11T23:35:21.966Z,3.63
2023-02-11T23:37:52.064Z,2.83
2023-02-11T23:40:19.368Z,1.88
2023-02-11T23:42:45.914Z,2.47
2023-02-11T23:45:12.700Z,2.28
2023-02-11T23:47:39.699Z,2.03
2023-02-11T23:50:07.118Z,4.53
2023-02-11T23:52:33.683Z,2.65
2023-02-11T23:55:00.121Z,3.33
2023-02-11T23:57:26.531Z,5.53
2023-02-11T23:59:52.911Z,5.97
